GSIXC EGPN-EGPH

Flight info

Callsign GSIXC
Flight time 0h 52m
Altitude 4000
Route DCT ARRIVAL POLMONT VRP
Aircraft DC6A/M-SDFGRY/S

Departure

Time 2026-04-23 18:02
Airport Dundee Airport (EGPN)

Arrival

Time 2026-04-23 18:54
Airport Edinburgh Airport (EGPH)
Time Latitude Longitude Altitude Speed Heading
2026-04-23 17:39 56.45351 -3.01586 24 ft 0 kts 72°
2026-04-23 17:54 56.45348 -3.01571 24 ft 2 kts 137°
2026-04-23 17:55 56.45321 -3.01666 25 ft 14 kts 270°
2026-04-23 17:55 56.45322 -3.01879 25 ft 18 kts 271°
2026-04-23 17:55 56.45323 -3.02091 24 ft 10 kts 270°
2026-04-23 17:56 56.45313 -3.02182 29 ft 5 kts 224°
2026-04-23 17:56 56.45310 -3.02187 29 ft 0 kts 218°
2026-04-23 17:58 56.45294 -3.02210 27 ft 5 kts 218°
2026-04-23 17:58 56.45250 -3.02279 24 ft 12 kts 237°
2026-04-23 17:59 56.45240 -3.02465 21 ft 18 kts 269°
2026-04-23 17:59 56.45239 -3.02725 21 ft 22 kts 271°
2026-04-23 17:59 56.45239 -3.03015 23 ft 23 kts 270°
2026-04-23 17:59 56.45239 -3.03274 28 ft 20 kts 269°
2026-04-23 18:00 56.45246 -3.03517 29 ft 16 kts 272°
2026-04-23 18:00 56.45259 -3.03659 30 ft 6 kts 272°
2026-04-23 18:00 56.45252 -3.03678 30 ft 1 kts 177°
2026-04-23 18:00 56.45248 -3.03673 30 ft 0 kts 116°
2026-04-23 18:01 56.45248 -3.03671 30 ft 0 kts 91°
2026-04-23 18:01 56.45248 -3.03669 30 ft 1 kts 91°
2026-04-23 18:01 56.45247 -3.03466 29 ft 46 kts 90°
2026-04-23 18:01 56.45247 -3.02474 69 ft 104 kts 89°
2026-04-23 18:02 56.45238 -3.01524 202 ft 125 kts 90°
2026-04-23 18:02 56.45198 -2.99065 609 ft 158 kts 92°
2026-04-23 18:02 56.45160 -2.97045 1045 ft 162 kts 92°
2026-04-23 18:02 56.45370 -2.95000 1417 ft 172 kts 70°
2026-04-23 18:03 56.45752 -2.93743 1729 ft 172 kts 55°
2026-04-23 18:03 56.46649 -2.92275 2057 ft 181 kts 31°
2026-04-23 18:03 56.47844 -2.91482 2414 ft 183 kts
2026-04-23 18:03 56.49098 -2.91399 2865 ft 181 kts 359°
2026-04-23 18:04 56.50381 -2.91384 3183 ft 186 kts 359°
2026-04-23 18:04 56.51680 -2.91436 3589 ft 185 kts 356°
2026-04-23 18:04 56.52972 -2.91583 3979 ft 188 kts 354°
2026-04-23 18:04 56.54310 -2.91771 4196 ft 194 kts 353°
2026-04-23 18:05 56.55671 -2.91964 4262 ft 202 kts 354°
2026-04-23 18:05 56.57082 -2.92154 4288 ft 209 kts 354°
2026-04-23 18:05 56.58577 -2.92400 4137 ft 220 kts 353°
2026-04-23 18:05 56.60103 -2.92759 4129 ft 222 kts 350°
2026-04-23 18:06 56.61619 -2.93274 4149 ft 220 kts 345°
2026-04-23 18:06 56.63080 -2.94023 4087 ft 219 kts 341°
2026-04-23 18:06 56.64540 -2.94874 3989 ft 221 kts 340°
2026-04-23 18:06 56.65984 -2.95753 4032 ft 217 kts 340°
2026-04-23 18:07 56.67413 -2.96631 4020 ft 216 kts 340°
2026-04-23 18:07 56.68831 -2.97506 4034 ft 215 kts 340°
2026-04-23 18:07 56.70246 -2.98374 4036 ft 214 kts 340°
2026-04-23 18:07 56.71663 -2.99229 4025 ft 215 kts 340°
2026-04-23 18:08 56.73074 -3.00109 4032 ft 213 kts 339°
2026-04-23 18:08 56.74453 -3.01024 4103 ft 209 kts 338°
2026-04-23 18:08 56.75819 -3.01978 4099 ft 211 kts 337°
2026-04-23 18:08 56.77184 -3.02988 4058 ft 213 kts 336°
2026-04-23 18:09 56.78542 -3.04035 4057 ft 211 kts 335°
2026-04-23 18:09 56.79894 -3.05085 4048 ft 212 kts 335°
2026-04-23 18:09 56.81258 -3.06158 3982 ft 215 kts 335°
2026-04-23 18:09 56.82620 -3.07257 4010 ft 212 kts 335°
2026-04-23 18:10 56.83944 -3.08329 4051 ft 210 kts 335°
2026-04-23 18:10 56.85310 -3.09416 4023 ft 213 kts 335°
2026-04-23 18:10 56.86655 -3.10469 4013 ft 213 kts 336°
2026-04-23 18:10 56.88015 -3.11537 4040 ft 212 kts 335°
2026-04-23 18:11 56.89361 -3.12614 4042 ft 211 kts 335°
2026-04-23 18:11 56.90705 -3.13711 4011 ft 212 kts 335°
2026-04-23 18:11 56.92048 -3.14831 4034 ft 211 kts 334°
2026-04-23 18:11 56.93385 -3.15948 4060 ft 211 kts 334°
2026-04-23 18:12 56.94724 -3.17070 4019 ft 212 kts 334°
2026-04-23 18:12 56.96055 -3.18217 4006 ft 212 kts 333°
2026-04-23 18:12 56.97384 -3.19408 3968 ft 213 kts 333°
2026-04-23 18:12 56.98711 -3.20627 3995 ft 213 kts 332°
2026-04-23 18:13 57.00023 -3.21867 4017 ft 211 kts 332°
2026-04-23 18:13 57.01325 -3.23139 4008 ft 213 kts 331°
2026-04-23 18:13 57.02630 -3.24428 4024 ft 212 kts 331°
2026-04-23 18:13 57.03910 -3.25716 4102 ft 209 kts 330°
2026-04-23 18:14 57.05164 -3.27051 4086 ft 210 kts 329°
2026-04-23 18:14 57.06398 -3.28425 4212 ft 206 kts 328°
2026-04-23 18:14 57.07621 -3.29841 4167 ft 210 kts 327°
2026-04-23 18:14 57.08839 -3.31314 4235 ft 207 kts 326°
2026-04-23 18:15 57.10032 -3.32804 4241 ft 208 kts 325°
2026-04-23 18:15 57.11164 -3.34484 4255 ft 209 kts 317°
2026-04-23 18:15 57.12196 -3.36386 4238 ft 211 kts 312°
2026-04-23 18:15 57.13146 -3.38441 4249 ft 210 kts 308°
2026-04-23 18:16 57.14011 -3.40614 4248 ft 211 kts 304°
2026-04-23 18:16 57.14789 -3.42904 4265 ft 211 kts 300°
2026-04-23 18:16 57.15490 -3.45267 4293 ft 210 kts 297°
2026-04-23 18:17 57.16590 -3.50192 4316 ft 210 kts 287°
2026-04-23 18:17 57.16967 -3.52793 4328 ft 210 kts 283°
2026-04-23 18:17 57.17262 -3.55427 4330 ft 210 kts 280°
2026-04-23 18:17 57.17459 -3.58108 4298 ft 212 kts 275°
2026-04-23 18:18 57.17543 -3.60824 4289 ft 212 kts 271°
2026-04-23 18:18 57.17536 -3.63546 4285 ft 213 kts 268°
2026-04-23 18:18 57.17456 -3.66301 4163 ft 217 kts 265°
2026-04-23 18:18 57.17314 -3.69087 4112 ft 218 kts 263°
2026-04-23 18:19 57.17126 -3.71801 4144 ft 214 kts 261°
2026-04-23 18:19 57.16783 -3.74467 4091 ft 215 kts 252°
2026-04-23 18:19 57.16231 -3.77052 4003 ft 218 kts 245°
2026-04-23 18:19 57.15524 -3.79515 3999 ft 216 kts 239°
2026-04-23 18:20 57.14721 -3.81828 4024 ft 214 kts 235°
2026-04-23 18:20 57.13847 -3.84046 3989 ft 215 kts 232°
2026-04-23 18:20 57.12872 -3.86117 3992 ft 213 kts 226°
2026-04-23 18:20 57.11790 -3.87959 4035 ft 211 kts 220°
2026-04-23 18:21 57.10609 -3.89611 3968 ft 215 kts 215°
2026-04-23 18:21 57.09363 -3.91118 3988 ft 213 kts 212°
2026-04-23 18:21 57.08104 -3.92499 4066 ft 209 kts 210°
2026-04-23 18:21 57.06832 -3.93822 4030 ft 211 kts 208°
2026-04-23 18:22 57.05435 -3.94536 4022 ft 210 kts 182°
2026-04-23 18:22 57.04026 -3.93956 4020 ft 210 kts 154°
2026-04-23 18:22 57.02836 -3.92433 4038 ft 208 kts 143°
2026-04-23 18:22 57.01608 -3.91044 4030 ft 209 kts 155°
2026-04-23 18:23 57.00701 -3.90455 4026 ft 209 kts 164°
2026-04-23 18:23 56.97416 -3.88868 4038 ft 211 kts 164°
2026-04-23 18:24 56.94589 -3.87395 4039 ft 212 kts 164°
2026-04-23 18:24 56.93167 -3.86661 4041 ft 212 kts 164°
2026-04-23 18:24 56.91750 -3.85927 4039 ft 212 kts 164°
2026-04-23 18:25 56.88908 -3.84461 4045 ft 212 kts 164°
2026-04-23 18:25 56.87484 -3.83727 4045 ft 212 kts 164°
2026-04-23 18:25 56.86063 -3.82994 4046 ft 212 kts 164°
2026-04-23 18:25 56.84640 -3.82262 4051 ft 213 kts 164°
2026-04-23 18:26 56.83215 -3.81529 4043 ft 213 kts 164°
2026-04-23 18:26 56.81791 -3.80797 4048 ft 213 kts 164°
2026-04-23 18:26 56.80364 -3.80064 4049 ft 213 kts 164°
2026-04-23 18:26 56.78940 -3.79333 4050 ft 213 kts 165°
2026-04-23 18:27 56.77517 -3.78605 4053 ft 213 kts 164°
2026-04-23 18:27 56.76090 -3.77872 4055 ft 213 kts 165°
2026-04-23 18:27 56.74675 -3.77148 4051 ft 214 kts 164°
2026-04-23 18:27 56.73244 -3.76411 4054 ft 213 kts 165°
2026-04-23 18:28 56.71819 -3.75689 4052 ft 213 kts 165°
2026-04-23 18:28 56.70390 -3.74959 4053 ft 213 kts 165°
2026-04-23 18:28 56.68966 -3.74232 4055 ft 213 kts 165°
2026-04-23 18:28 56.67543 -3.73504 4053 ft 212 kts 165°
2026-04-23 18:29 56.66118 -3.72778 4057 ft 213 kts 165°
2026-04-23 18:29 56.64694 -3.72057 4060 ft 213 kts 165°
2026-04-23 18:29 56.63271 -3.71329 4056 ft 212 kts 165°
2026-04-23 18:29 56.61850 -3.70606 4059 ft 212 kts 165°
2026-04-23 18:30 56.60431 -3.69887 4059 ft 212 kts 165°
2026-04-23 18:30 56.59005 -3.69164 4059 ft 213 kts 165°
2026-04-23 18:30 56.57578 -3.68439 4061 ft 213 kts 165°
2026-04-23 18:30 56.56151 -3.67715 4060 ft 213 kts 165°
2026-04-23 18:31 56.54719 -3.66988 4061 ft 213 kts 165°
2026-04-23 18:31 56.53296 -3.66260 4064 ft 212 kts 165°
2026-04-23 18:31 56.51874 -3.65526 4065 ft 213 kts 165°
2026-04-23 18:31 56.50436 -3.64766 3963 ft 215 kts 164°
2026-04-23 18:32 56.49039 -3.64013 3868 ft 205 kts 164°
2026-04-23 18:32 56.47693 -3.63295 3739 ft 199 kts 164°
2026-04-23 18:32 56.46399 -3.62607 3616 ft 193 kts 164°
2026-04-23 18:32 56.45096 -3.62170 3468 ft 189 kts 175°
2026-04-23 18:33 56.43792 -3.62219 3321 ft 187 kts 187°
2026-04-23 18:33 56.42534 -3.62744 3181 ft 185 kts 199°
2026-04-23 18:33 56.41368 -3.63712 3022 ft 184 kts 208°
2026-04-23 18:33 56.40272 -3.64907 2888 ft 183 kts 213°
2026-04-23 18:34 56.39246 -3.66220 2780 ft 181 kts 217°
2026-04-23 18:34 56.38301 -3.67637 2785 ft 174 kts 221°
2026-04-23 18:34 56.37438 -3.69153 2799 ft 169 kts 226°
2026-04-23 18:34 56.36662 -3.70718 2789 ft 166 kts 228°
2026-04-23 18:35 56.35898 -3.72214 2795 ft 163 kts 227°
2026-04-23 18:35 56.35136 -3.73715 2797 ft 162 kts 227°
2026-04-23 18:35 56.34376 -3.75205 2788 ft 160 kts 227°
2026-04-23 18:35 56.33621 -3.76686 2795 ft 160 kts 227°
2026-04-23 18:36 56.32868 -3.78163 2782 ft 160 kts 227°
2026-04-23 18:36 56.32120 -3.79637 2795 ft 159 kts 227°
2026-04-23 18:36 56.31370 -3.81109 2766 ft 160 kts 226°
2026-04-23 18:36 56.30594 -3.82587 2646 ft 164 kts 226°
2026-04-23 18:37 56.29805 -3.84086 2546 ft 166 kts 226°
2026-04-23 18:37 56.29007 -3.85603 2433 ft 167 kts 226°
2026-04-23 18:37 56.28202 -3.87128 2328 ft 168 kts 226°
2026-04-23 18:37 56.27409 -3.88638 2215 ft 168 kts 226°
2026-04-23 18:38 56.26610 -3.90163 2094 ft 167 kts 226°
2026-04-23 18:38 56.25815 -3.91684 1958 ft 166 kts 226°
2026-04-23 18:38 56.25030 -3.93163 1943 ft 160 kts 225°
2026-04-23 18:38 56.24231 -3.94516 1924 ft 156 kts 219°
2026-04-23 18:39 56.23370 -3.95672 1890 ft 154 kts 213°
2026-04-23 18:39 56.22465 -3.96678 1869 ft 151 kts 209°
2026-04-23 18:39 56.21560 -3.97580 1865 ft 148 kts 207°
2026-04-23 18:39 56.20654 -3.98424 1872 ft 145 kts 204°
2026-04-23 18:40 56.19718 -3.99107 1831 ft 145 kts 198°
2026-04-23 18:40 56.18762 -3.99644 1842 ft 143 kts 194°
2026-04-23 18:40 56.17792 -4.00070 1808 ft 144 kts 189°
2026-04-23 18:40 56.16805 -4.00226 1790 ft 142 kts 178°
2026-04-23 18:41 56.15818 -4.00084 1769 ft 142 kts 170°
2026-04-23 18:41 56.14847 -3.99741 1757 ft 142 kts 165°
2026-04-23 18:41 56.13932 -3.99193 1722 ft 141 kts 154°
2026-04-23 18:41 56.13050 -3.98446 1733 ft 139 kts 152°
2026-04-23 18:42 56.12188 -3.97672 1712 ft 139 kts 151°
2026-04-23 18:42 56.11323 -3.96882 1671 ft 140 kts 153°
2026-04-23 18:42 56.10414 -3.96165 1620 ft 142 kts 154°
2026-04-23 18:42 56.09528 -3.95434 1603 ft 141 kts 152°
2026-04-23 18:43 56.08680 -3.94573 1557 ft 141 kts 142°
2026-04-23 18:43 56.07964 -3.93360 1509 ft 142 kts 127°
2026-04-23 18:43 56.07422 -3.91884 1418 ft 143 kts 119°
2026-04-23 18:43 56.06914 -3.90356 1399 ft 142 kts 120°
2026-04-23 18:44 56.06410 -3.88847 1362 ft 140 kts 119°
2026-04-23 18:44 56.05902 -3.87368 1338 ft 139 kts 120°
2026-04-23 18:44 56.05386 -3.85913 1319 ft 139 kts 120°
2026-04-23 18:44 56.04877 -3.84460 1323 ft 137 kts 121°
2026-04-23 18:45 56.04369 -3.83035 1298 ft 135 kts 121°
2026-04-23 18:45 56.03779 -3.81705 1198 ft 139 kts 129°
2026-04-23 18:45 56.03116 -3.80439 1175 ft 138 kts 132°
2026-04-23 18:45 56.02431 -3.79245 1139 ft 137 kts 134°
2026-04-23 18:46 56.01744 -3.78072 1117 ft 134 kts 132°
2026-04-23 18:46 56.01123 -3.76875 1153 ft 130 kts 128°
2026-04-23 18:46 56.00553 -3.75641 1127 ft 131 kts 126°
2026-04-23 18:46 56.00003 -3.74367 1115 ft 128 kts 124°
2026-04-23 18:47 55.99494 -3.73070 1119 ft 127 kts 119°
2026-04-23 18:47 55.99081 -3.71675 1138 ft 126 kts 111°
2026-04-23 18:47 55.98822 -3.70197 1190 ft 124 kts 102°
2026-04-23 18:47 55.98584 -3.68731 1152 ft 125 kts 105°
2026-04-23 18:48 55.98350 -3.67257 1179 ft 122 kts 102°
2026-04-23 18:48 55.98200 -3.65748 1139 ft 125 kts 95°
2026-04-23 18:48 55.98125 -3.64200 1148 ft 124 kts 94°
2026-04-23 18:48 55.98066 -3.62658 1154 ft 125 kts 93°
2026-04-23 18:49 55.98055 -3.61637 1152 ft 124 kts 89°
2026-04-23 18:49 55.98126 -3.60112 1133 ft 123 kts 83°
2026-04-23 18:49 55.98231 -3.58594 1096 ft 124 kts 85°
2026-04-23 18:49 55.98223 -3.56562 1090 ft 122 kts 94°
2026-04-23 18:50 55.98190 -3.56054 1096 ft 122 kts 96°
2026-04-23 18:50 55.97804 -3.54158 1085 ft 124 kts 120°
2026-04-23 18:50 55.97240 -3.52978 1077 ft 126 kts 130°
2026-04-23 18:50 55.96653 -3.51827 1090 ft 123 kts 128°
2026-04-23 18:51 55.96103 -3.50677 1100 ft 121 kts 126°
2026-04-23 18:51 55.95589 -3.49497 1098 ft 121 kts 124°
2026-04-23 18:51 55.95080 -3.48308 1078 ft 121 kts 126°
2026-04-23 18:51 55.94547 -3.47156 1030 ft 123 kts 127°
2026-04-23 18:52 55.94020 -3.46042 961 ft 109 kts 127°
2026-04-23 18:52 55.93596 -3.45000 824 ft 102 kts 117°
2026-04-23 18:52 55.93378 -3.43849 711 ft 96 kts 99°
2026-04-23 18:52 55.93359 -3.42672 566 ft 95 kts 83°
2026-04-23 18:53 55.93531 -3.41565 424 ft 90 kts 69°
2026-04-23 18:53 55.93830 -3.40639 335 ft 84 kts 59°
2026-04-23 18:53 55.94150 -3.39760 229 ft 82 kts 60°
2026-04-23 18:53 55.94441 -3.38924 152 ft 77 kts 61°
2026-04-23 18:54 55.94706 -3.38141 113 ft 71 kts 60°
2026-04-23 18:54 55.94945 -3.37428 107 ft 58 kts 58°
2026-04-23 18:54 55.95077 -3.37043 108 ft 21 kts 58°
2026-04-23 18:54 55.95159 -3.36802 109 ft 26 kts 60°
2026-04-23 18:55 55.95253 -3.36507 106 ft 24 kts 70°
2026-04-23 18:55 55.95197 -3.36352 105 ft 11 kts 149°
2026-04-23 18:55 55.95185 -3.36338 107 ft 0 kts 149°
2026-04-23 18:56 55.95183 -3.36336 107 ft 2 kts 149°
2026-04-23 18:56 55.95150 -3.36278 107 ft 8 kts 106°
2026-04-23 18:57 55.95167 -3.36189 106 ft 11 kts 59°
2026-04-23 18:57 55.95219 -3.36039 107 ft 16 kts 59°
2026-04-23 18:57 55.95263 -3.35892 106 ft 11 kts 80°
2026-04-23 18:57 55.95222 -3.35774 107 ft 9 kts 124°
2026-04-23 18:58 55.95201 -3.35696 107 ft 4 kts 81°
2026-04-23 18:58 55.95227 -3.35653 107 ft 1 kts 28°
2026-04-23 18:58 55.95230 -3.35650 107 ft 0 kts 28°